Metar z połowy godziny Komunikat METAR ze strony awiacja.imgw.pl Metar G00 EPLB METAR EPLB 230030Z 15007KT CAVOK 20/16 Q1009 =